createdAt,value
2023-04-26T00:05:55.795Z,98842.95
2023-04-26T00:16:01.527Z,98849.45
2023-04-26T00:26:07.705Z,98857.96
2023-04-26T00:36:14.005Z,98861.45
2023-04-26T00:46:19.698Z,98857.52
2023-04-26T00:56:27.404Z,98860.82
2023-04-26T01:06:38.620Z,98863.05
2023-04-26T01:16:47.743Z,98868.13
2023-04-26T01:26:53.619Z,98875.73
2023-04-26T01:36:59.270Z,98886.05
2023-04-26T01:47:04.944Z,98885.77
2023-04-26T01:57:10.612Z,98889.86
2023-04-26T02:07:16.221Z,98888.91
2023-04-26T02:17:22.911Z,98895.67
2023-04-26T02:27:28.900Z,98898.34
2023-04-26T02:37:35.215Z,98897.55
2023-04-26T02:47:41.173Z,98901.89
2023-04-26T02:57:47.067Z,98907.15
2023-04-26T03:07:53.090Z,98894.45
2023-04-26T03:17:59.326Z,98904.19
2023-04-26T03:28:05.440Z,98916.43
2023-04-26T03:38:11.209Z,98924.14
2023-04-26T03:48:17.542Z,98930.55
2023-04-26T03:58:23.408Z,98934.38
2023-04-26T04:08:28.975Z,98945.84
2023-04-26T04:18:34.661Z,98953.65
2023-04-26T04:28:41.491Z,98950.88
2023-04-26T04:38:47.331Z,98950.48
2023-04-26T04:48:53.573Z,98960.09
2023-04-26T04:58:59.589Z,98974.00
2023-04-26T05:09:05.911Z,98963.59
2023-04-26T05:19:13.449Z,98955.86
2023-04-26T05:29:19.112Z,98947.30
2023-04-26T05:39:24.832Z,98954.16
2023-04-26T05:49:30.610Z,98952.08
2023-04-26T05:59:41.460Z,98952.95
2023-04-26T06:09:47.140Z,98956.96
2023-04-26T06:19:53.080Z,98970.32
2023-04-26T06:29:58.820Z,98974.48
2023-04-26T06:40:04.898Z,98961.48
2023-04-26T06:50:12.796Z,98966.17
2023-04-26T07:00:19.707Z,98967.24
2023-04-26T07:10:26.217Z,98973.45
2023-04-26T07:20:32.057Z,98971.31
2023-04-26T07:30:37.931Z,98983.05
2023-04-26T07:40:43.873Z,98985.05
2023-04-26T07:50:48.133Z,98993.13
2023-04-26T08:00:55.228Z,98998.09
2023-04-26T08:11:01.098Z,99008.50
2023-04-26T08:21:07.089Z,99015.02
2023-04-26T08:31:12.772Z,99030.58
2023-04-26T08:41:24.920Z,99044.59
2023-04-26T08:51:33.292Z,99058.30
2023-04-26T09:01:42.213Z,99059.30
2023-04-26T09:12:05.004Z,99066.52
2023-04-26T09:22:11.725Z,99069.95
2023-04-26T09:32:17.462Z,99073.80
2023-04-26T09:42:23.115Z,99078.06
2023-04-26T09:52:29.451Z,99085.02
2023-04-26T10:02:35.910Z,99076.66
2023-04-26T10:12:43.673Z,99075.73
2023-04-26T10:22:55.051Z,99082.21
2023-04-26T10:33:23.913Z,99087.25
2023-04-26T10:43:33.022Z,99095.49
2023-04-26T10:54:02.628Z,99098.64
2023-04-26T11:04:10.350Z,99095.69
2023-04-26T11:14:15.551Z,99106.29
2023-04-26T11:24:27.955Z,99109.61
2023-04-26T11:34:36.584Z,99119.91
2023-04-26T11:44:42.629Z,99131.27
2023-04-26T11:54:48.314Z,99143.92
2023-04-26T12:05:01.432Z,99137.03
2023-04-26T12:15:13.911Z,99138.91
2023-04-26T12:25:21.848Z,99139.80
2023-04-26T12:35:27.820Z,99143.80
2023-04-26T12:45:33.964Z,99152.96
2023-04-26T12:55:39.796Z,99167.09
2023-04-26T13:05:45.801Z,99159.31
2023-04-26T13:15:52.105Z,99158.33
2023-04-26T13:25:57.852Z,99171.63
2023-04-26T13:36:03.605Z,99178.79
2023-04-26T13:46:09.469Z,99187.05
2023-04-26T13:56:15.429Z,99186.54
2023-04-26T14:06:21.323Z,99196.09
2023-04-26T14:16:27.704Z,99204.14
2023-04-26T14:26:34.039Z,99202.96
2023-04-26T14:36:39.862Z,99206.27
2023-04-26T14:46:45.638Z,99222.17
2023-04-26T14:56:51.466Z,99230.48
2023-04-26T15:06:57.881Z,99247.46
2023-04-26T15:17:03.648Z,99253.95
2023-04-26T15:27:10.130Z,99252.30
2023-04-26T15:37:15.826Z,99252.80
2023-04-26T15:47:21.609Z,99258.49
2023-04-26T15:57:27.566Z,99258.83
2023-04-26T16:07:33.955Z,99263.61
2023-04-26T16:17:40.357Z,99264.89
2023-04-26T16:27:45.961Z,99270.42
2023-04-26T16:37:51.792Z,99273.73
2023-04-26T16:47:57.464Z,99282.52
2023-04-26T16:58:03.367Z,99285.38
2023-04-26T17:08:09.354Z,99295.30
2023-04-26T17:18:15.268Z,99305.43
2023-04-26T17:28:21.062Z,99311.18
2023-04-26T17:38:27.157Z,99317.57
2023-04-26T17:48:33.000Z,99324.31
2023-04-26T17:58:38.779Z,99336.11
2023-04-26T18:08:45.250Z,99351.39
2023-04-26T18:18:51.140Z,99357.70
2023-04-26T18:28:57.120Z,99368.29
2023-04-26T18:39:03.067Z,99372.38
2023-04-26T18:49:08.763Z,99386.00
2023-04-26T18:59:14.570Z,99388.68
2023-04-26T19:09:20.694Z,99397.96
2023-04-26T19:19:26.402Z,99406.90
2023-04-26T19:29:32.176Z,99412.16
2023-04-26T19:39:38.380Z,99416.55
2023-04-26T19:49:44.100Z,99419.08
2023-04-26T19:59:49.940Z,99426.11
2023-04-26T20:09:56.075Z,99429.55
2023-04-26T20:20:02.175Z,99437.08
2023-04-26T20:30:10.338Z,99444.02
2023-04-26T20:40:16.449Z,99444.05
2023-04-26T20:50:22.896Z,99446.05
2023-04-26T21:00:28.979Z,99456.36
2023-04-26T21:10:35.184Z,99457.67
2023-04-26T21:20:41.536Z,99471.92
2023-04-26T21:30:47.800Z,99481.30
2023-04-26T21:40:54.139Z,99489.88
2023-04-26T21:51:00.361Z,99494.70
2023-04-26T22:01:14.331Z,99502.80
2023-04-26T22:11:21.730Z,99512.79
2023-04-26T22:21:28.578Z,99519.27
2023-04-26T22:31:33.309Z,99529.45
2023-04-26T22:41:39.711Z,99537.16
2023-04-26T22:51:57.383Z,99543.52
2023-04-26T23:02:08.325Z,99541.85
2023-04-26T23:12:17.642Z,99552.86
2023-04-26T23:22:24.217Z,99555.40
2023-04-26T23:32:30.439Z,99558.98
2023-04-26T23:42:36.640Z,99554.73
2023-04-26T23:52:42.857Z,99562.96
